• Join FlightAware (Why Join?)
  • Login
  • US Flag 
06:26AM EDT


 

Airport Tracker/Info


-or-


 

Live Flight TrackerFlight Track Log ✈ ASQ5539 ✈ 17-Apr-2013 ✈ KATL - KVPS

Flight Track Log - Related Links

Times and Time Zones

All times are in EDT time to prevent confusion due to time zone crossing. See the ASQ5539 flight status page for this flight to view local times or setup timezone preferences in your user account.

Time Position Orientation Groundspeed Altitude Reporting Facility
EDT Latitude Longitude Course Direction KTS MPH feet Rate Location/Type
06:28PM 33.6333 -84.3667 202° Southwest 203 234 2,500  Level Atlanta TRACON
06:29PM 33.6000 -84.2833 116° Southeast 269 310 4,700 2,460 Climbing Atlanta TRACON
06:30PM 33.5000 -84.2833 180° South 281 323 7,700 2,640 Climbing Atlanta TRACON
06:31PM 33.4333 -84.2833 180° South 287 330 10,300 1,440 Climbing Atlanta TRACON
06:32PM 33.3283 -84.3397 204° Southwest 331 381 11,100 960 Climbing Atlanta Center
06:33PM 33.3459 -84.3166 202° Southwest  Level FlightAware Approximate
06:33PM 33.2322 -84.3814 200° South 361 415 12,600  Level Atlanta Center
06:34PM 33.1361 -84.4258 201° Southwest 373 429 14,100 1,500 Climbing Atlanta Center
06:35PM 33.0378 -84.4725 202° Southwest 378 435 15,700 1,380 Climbing Atlanta Center
06:36PM 32.9481 -84.5067 198° South 378 435 16,900 1,380 Climbing Atlanta Center
06:37PM 32.8247 -84.5208 186° South 373 429 18,500 1,440 Climbing Atlanta Center
06:38PM 32.7308 -84.5303 185° South 373 429 19,800 1,140 Climbing Atlanta Center
06:39PM 32.6244 -84.5419 185° South 373 429 20,800 960 Climbing Atlanta Center
06:40PM 32.5219 -84.5511 184° South 373 429 21,800 960 Climbing Atlanta Center
06:41PM 32.4133 -84.5631 185° South 386 444 22,800 960 Climbing Atlanta Center
06:42PM 32.3069 -84.5819 189° South 391 450 23,800 960 Climbing Atlanta Center
06:43PM 32.2314 -84.6675 224° Southwest 356 410 24,800 960 Climbing Atlanta Center
06:44PM 32.1661 -84.7650 232° Southwest 363 418 25,800 600 Climbing Atlanta Center
06:45PM 32.0986 -84.8628 231° Southwest 381 438 26,000 60 Climbing Atlanta Center
06:46PM 32.0292 -84.9625 231° Southwest 394 453 26,000  Level Atlanta Center
06:47PM 31.9594 -85.0694 232° Southwest 407 468 26,000 -180 Level Atlanta Center
06:49PM 31.8486 -85.2208 229° Southwest 406 467 25,600 -660 Descending Jacksonville Center
06:50PM 31.7692 -85.3386 232° Southwest 438 504 24,500 -840 Descending Jacksonville Center
06:51PM 31.6897 -85.4514 230° Southwest 454 522 24,000 -300 Descending Jacksonville Center
06:52PM 31.6122 -85.5639 231° Southwest 454 522 24,000  Level Jacksonville Center
06:53PM 31.5369 -85.6714 231° Southwest 448 516 24,000  Level Jacksonville Center
06:54PM 31.4614 -85.7786 230° Southwest 443 510 24,000 -420 Level Jacksonville Center
06:55PM 31.3772 -85.8953 230° Southwest 438 504 23,200 -900 Descending Jacksonville Center
06:56PM 31.3017 -86.0072 232° Southwest 438 504 22,200 -1,200 Descending Jacksonville Center
06:57PM 31.2300 -86.1092 231° Southwest 438 504 20,900 -1,980 Descending Jacksonville Center
06:58PM 31.1628 -86.2064 231° Southwest 417 480 18,300 1,500 Descending Jacksonville Center
06:59PM 31.0978 -86.2964 230° Southwest 394 453 24,000 -2,640 Climbing Jacksonville Center
07:00PM 31.0328 -86.3861 230° Southwest 384 442 13,100 -6,540 Descending Jacksonville Center
07:01PM 30.9678 -86.4758 230° Southwest 370 426 11,000 -1,680 Descending Jacksonville Center
07:02PM 30.8878 -86.4944 191° South 295 339 9,800 -1,920 Descending Jacksonville Center
07:03PM 30.8133 -86.4722 166° South 272 313 7,200 -2,880 Descending Jacksonville Center
07:04PM 30.7344 -86.4597 172° South 272 313 4,200 -2,580 Descending Jacksonville Center
07:05PM 30.6653 -86.4644 183° South 272 313 2,200 -1,200 Descending Jacksonville Center
07:06PM 30.6042 -86.4814 193° South 250 288 1,900 -600 Descending Jacksonville Center
07:07PM 30.5539 -86.4939 192° South 212 244 1,100 -840 Descending Jacksonville Center
07:09PM 30.4832 -86.5260 198° South  Level Estimated
07:16PM 30.4832 -86.5260 198° South  Level Estimated